createdAt,value
2022-09-01T00:00:04.899Z,100101.31
2022-09-01T00:02:35.280Z,100104.88
2022-09-01T00:05:04.834Z,100092.03
2022-09-01T00:07:31.914Z,100092.31
2022-09-01T00:09:59.575Z,100104.34
2022-09-01T00:12:28.194Z,100112.53
2022-09-01T00:14:55.533Z,100116.31
2022-09-01T00:17:22.779Z,100107.88
2022-09-01T00:19:49.755Z,100121.50
2022-09-01T00:22:16.816Z,100116.84
2022-09-01T00:24:43.785Z,100126.06
2022-09-01T00:27:10.719Z,100123.25
2022-09-01T00:29:37.961Z,100116.47
2022-09-01T00:32:10.845Z,100109.66
2022-09-01T00:34:37.795Z,100116.16
2022-09-01T00:37:04.837Z,100116.13
2022-09-01T00:39:31.919Z,100111.22
2022-09-01T00:41:59.794Z,100113.91
2022-09-01T00:44:29.539Z,100103.59
2022-09-01T00:46:57.784Z,100099.25
2022-09-01T00:49:34.932Z,100103.00
2022-09-01T00:52:11.303Z,100093.22
2022-09-01T00:54:42.015Z,100104.38
2022-09-01T00:57:11.020Z,100100.56
2022-09-01T00:59:43.770Z,100105.69
2022-09-01T01:02:11.455Z,100110.09
2022-09-01T01:04:38.769Z,100110.59
2022-09-01T01:07:06.786Z,100104.84
2022-09-01T01:09:38.770Z,100104.06
2022-09-01T01:12:07.226Z,100110.28
2022-09-01T01:14:37.087Z,100105.66
2022-09-01T01:17:04.227Z,100120.38
2022-09-01T01:20:01.162Z,100116.59
2022-09-01T01:22:56.722Z,100118.75
2022-09-01T01:25:24.354Z,100125.28
2022-09-01T01:27:51.633Z,100122.06
2022-09-01T01:30:21.006Z,100121.97
2022-09-01T01:32:52.057Z,100122.78
2022-09-01T01:35:22.042Z,100121.94
2022-09-01T01:37:52.213Z,100127.19
2022-09-01T01:40:22.977Z,100128.78
2022-09-01T01:42:53.327Z,100125.53
2022-09-01T01:45:22.886Z,100108.94
2022-09-01T01:47:53.485Z,100122.88
2022-09-01T01:50:26.530Z,100111.41
2022-09-01T01:53:00.237Z,100120.09
2022-09-01T01:55:31.382Z,100117.66
2022-09-01T01:58:01.267Z,100112.78
2022-09-01T02:00:32.427Z,100109.72
2022-09-01T02:02:59.758Z,100112.47
2022-09-01T02:05:32.321Z,100117.88
2022-09-01T02:08:06.302Z,100120.06
2022-09-01T02:10:44.238Z,100117.03
2022-09-01T02:13:16.609Z,100121.53
2022-09-01T02:15:49.507Z,100115.91
2022-09-01T02:18:24.064Z,100130.72
2022-09-01T02:20:53.125Z,100131.94
2022-09-01T02:23:24.660Z,100143.47
2022-09-01T02:26:15.090Z,100135.53
2022-09-01T02:28:44.007Z,100126.38
2022-09-01T02:31:12.128Z,100141.44
2022-09-01T02:33:43.933Z,100141.13
2022-09-01T02:36:15.406Z,100133.63
2022-09-01T02:38:53.803Z,100140.00
2022-09-01T02:41:25.302Z,100137.44
2022-09-01T02:43:52.733Z,100136.00
2022-09-01T02:46:24.253Z,100128.06
2022-09-01T02:48:53.124Z,100141.53
2022-09-01T02:51:25.894Z,100141.72
2022-09-01T02:53:54.031Z,100132.16
2022-09-01T02:56:25.428Z,100136.34
2022-09-01T02:58:54.417Z,100144.88
2022-09-01T03:01:33.641Z,100135.44
2022-09-01T03:04:05.972Z,100137.66
2022-09-01T03:06:34.691Z,100135.38
2022-09-01T03:09:04.874Z,100140.91
2022-09-01T03:11:35.111Z,100138.06
2022-09-01T03:14:02.280Z,100126.41
2022-09-01T03:16:33.386Z,100125.03
2022-09-01T03:19:03.478Z,100129.25
2022-09-01T03:21:32.394Z,100129.50
2022-09-01T03:24:02.295Z,100125.38
2022-09-01T03:26:31.019Z,100132.53
2022-09-01T03:28:59.304Z,100132.56
2022-09-01T03:31:31.144Z,100136.94
2022-09-01T03:34:01.582Z,100140.25
2022-09-01T03:36:33.523Z,100142.06
2022-09-01T03:39:01.507Z,100130.84
2022-09-01T03:41:33.718Z,100130.84
2022-09-01T03:44:00.821Z,100136.66
2022-09-01T03:46:36.378Z,100139.81
2022-09-01T03:49:07.637Z,100131.63
2022-09-01T03:51:39.159Z,100131.53
2022-09-01T03:54:07.543Z,100126.97
2022-09-01T03:56:34.639Z,100112.88
2022-09-01T03:59:01.846Z,100124.25
2022-09-01T04:01:38.189Z,100126.84
2022-09-01T04:04:06.790Z,100123.13
2022-09-01T04:06:34.555Z,100122.00
2022-09-01T04:09:05.032Z,100138.81
2022-09-01T04:11:33.646Z,100142.03
2022-09-01T04:14:01.233Z,100145.38
2022-09-01T04:16:51.188Z,100133.78
2022-09-01T04:19:25.305Z,100132.28
2022-09-01T04:21:55.953Z,100131.53
2022-09-01T04:24:25.106Z,100125.00
2022-09-01T04:26:53.175Z,100119.31
2022-09-01T04:29:28.654Z,100120.44
2022-09-01T04:32:02.443Z,100119.94
2022-09-01T04:34:40.526Z,100132.97
2022-09-01T04:37:11.267Z,100124.72
2022-09-01T04:39:39.366Z,100124.72
2022-09-01T04:42:09.260Z,100134.09
2022-09-01T04:44:36.907Z,100128.94
2022-09-01T04:47:15.155Z,100141.13
2022-09-01T04:49:43.594Z,100128.31
2022-09-01T04:52:10.948Z,100135.91
2022-09-01T04:54:40.701Z,100135.81
2022-09-01T04:57:08.079Z,100137.44
2022-09-01T04:59:37.574Z,100142.06
2022-09-01T05:02:07.879Z,100146.72
2022-09-01T05:04:36.486Z,100147.25
2022-09-01T05:07:05.423Z,100143.44
2022-09-01T05:09:37.342Z,100146.22
2022-09-01T05:12:23.167Z,100148.00
2022-09-01T05:14:50.284Z,100144.44
2022-09-01T05:17:18.866Z,100154.22
2022-09-01T05:19:48.701Z,100149.34
2022-09-01T05:22:22.372Z,100134.03
2022-09-01T05:24:56.459Z,100150.91
2022-09-01T05:27:24.075Z,100156.06
2022-09-01T05:29:51.105Z,100141.13
2022-09-01T05:32:18.260Z,100145.19
2022-09-01T05:34:46.307Z,100146.34
2022-09-01T05:37:16.344Z,100145.81
2022-09-01T05:39:43.527Z,100155.06
2022-09-01T05:42:11.361Z,100152.41
2022-09-01T05:44:44.485Z,100152.81
2022-09-01T05:47:20.609Z,100158.16
2022-09-01T05:49:50.575Z,100150.81
2022-09-01T05:52:17.661Z,100173.56
2022-09-01T05:54:48.155Z,100161.31
2022-09-01T05:57:33.834Z,100172.19
2022-09-01T06:00:04.202Z,100177.19
2022-09-01T06:02:43.178Z,100174.28
2022-09-01T06:05:15.957Z,100173.63
2022-09-01T06:07:44.446Z,100183.38
2022-09-01T06:10:14.830Z,100188.56
2022-09-01T06:12:43.401Z,100186.97
2022-09-01T06:15:16.217Z,100185.44
2022-09-01T06:17:48.054Z,100188.78
2022-09-01T06:20:19.183Z,100187.88
2022-09-01T06:22:47.865Z,100193.28
2022-09-01T06:25:18.735Z,100188.88
2022-09-01T06:27:50.273Z,100187.31
2022-09-01T06:30:24.104Z,100186.00
2022-09-01T06:33:11.497Z,100191.50
2022-09-01T06:35:47.249Z,100200.50
2022-09-01T06:38:17.806Z,100192.59
2022-09-01T06:40:48.805Z,100202.88
2022-09-01T06:43:19.663Z,100206.97
2022-09-01T06:45:55.040Z,100206.13
2022-09-01T06:48:26.736Z,100204.56
2022-09-01T06:51:21.774Z,100200.63
2022-09-01T06:53:59.735Z,100219.19
2022-09-01T06:56:38.937Z,100223.28
2022-09-01T06:59:15.786Z,100222.81
2022-09-01T07:01:49.395Z,100228.06
2022-09-01T07:04:20.346Z,100220.22
2022-09-01T07:07:53.944Z,100225.59
2022-09-01T07:13:08.336Z,100222.94
2022-09-01T07:18:37.285Z,100227.03
2022-09-01T07:21:35.745Z,100240.69
2022-09-01T07:24:13.479Z,100237.09
2022-09-01T07:27:07.679Z,100234.72
2022-09-01T07:29:35.512Z,100233.56
2022-09-01T07:34:50.599Z,100233.28
2022-09-01T07:43:33.460Z,100218.00
2022-09-01T07:46:40.516Z,100215.22
2022-09-01T07:49:50.094Z,100210.00
2022-09-01T07:52:04.622Z,100216.91
2022-09-01T07:54:35.272Z,100220.81
2022-09-01T07:57:03.271Z,100215.63
2022-09-01T07:59:35.493Z,100223.53
2022-09-01T08:02:13.959Z,100215.31
2022-09-01T08:04:43.500Z,100227.03
2022-09-01T08:07:15.399Z,100227.88
2022-09-01T08:09:44.692Z,100212.59
2022-09-01T08:12:13.422Z,100229.25
2022-09-01T08:14:46.891Z,100223.06
2022-09-01T08:17:18.265Z,100226.75
2022-09-01T08:20:08.837Z,100232.69
2022-09-01T08:22:57.567Z,100234.06
2022-09-01T08:25:29.110Z,100229.47
2022-09-01T08:28:00.457Z,100232.81
2022-09-01T08:30:28.597Z,100236.00
2022-09-01T08:32:55.841Z,100234.53
2022-09-01T08:35:23.538Z,100235.94
2022-09-01T08:37:50.924Z,100229.91
2022-09-01T08:40:26.190Z,100229.66
2022-09-01T08:43:20.782Z,100224.31
2022-09-01T08:45:55.082Z,100212.53
2022-09-01T08:49:24.344Z,100214.69
2022-09-01T08:52:01.579Z,100213.94
2022-09-01T08:54:50.445Z,100218.84
2022-09-01T08:57:27.614Z,100208.81
2022-09-01T09:00:16.397Z,100210.31
2022-09-01T09:02:52.800Z,100211.63
2022-09-01T09:05:25.991Z,100214.34
2022-09-01T09:08:29.624Z,100212.69
2022-09-01T09:11:03.996Z,100211.81
2022-09-01T09:13:42.874Z,100223.19
2022-09-01T09:16:22.037Z,100223.66
2022-09-01T09:18:57.889Z,100220.66
2022-09-01T09:21:30.338Z,100236.53
2022-09-01T09:24:09.136Z,100236.75
2022-09-01T09:26:43.497Z,100232.78
2022-09-01T09:29:10.708Z,100240.78
2022-09-01T09:31:46.137Z,100240.75
2022-09-01T09:34:29.284Z,100245.19
2022-09-01T09:36:57.341Z,100236.94
2022-09-01T09:39:24.517Z,100250.78
2022-09-01T09:42:09.280Z,100248.97
2022-09-01T09:44:44.293Z,100244.72
2022-09-01T09:47:44.689Z,100238.94
2022-09-01T09:50:20.172Z,100245.53
2022-09-01T09:52:48.895Z,100241.41
2022-09-01T09:55:29.148Z,100245.78
2022-09-01T09:58:00.744Z,100241.44
2022-09-01T10:00:34.588Z,100255.19
2022-09-01T10:03:10.858Z,100261.13
2022-09-01T10:05:53.672Z,100267.06
2022-09-01T10:08:26.601Z,100280.13
2022-09-01T10:10:57.605Z,100276.19
2022-09-01T10:13:33.095Z,100270.56
2022-09-01T10:16:03.745Z,100268.34
2022-09-01T10:18:39.828Z,100262.41
2022-09-01T10:21:11.945Z,100266.56
2022-09-01T10:23:41.500Z,100258.56
2022-09-01T10:26:20.636Z,100256.06
2022-09-01T10:28:56.003Z,100257.41
2022-09-01T10:31:24.045Z,100256.44
2022-09-01T10:33:58.600Z,100259.44
2022-09-01T10:36:26.056Z,100253.59
2022-09-01T10:38:58.748Z,100256.94
2022-09-01T10:41:42.687Z,100257.88
2022-09-01T10:44:19.339Z,100258.34
2022-09-01T10:46:51.149Z,100253.47
2022-09-01T10:49:25.185Z,100260.47
2022-09-01T10:52:02.497Z,100257.03
2022-09-01T10:54:45.238Z,100256.53
2022-09-01T10:57:46.076Z,100248.28
2022-09-01T11:00:36.992Z,100241.03
2022-09-01T11:06:14.884Z,100239.66
2022-09-01T11:08:50.318Z,100241.59
2022-09-01T11:11:36.827Z,100228.81
2022-09-01T11:14:18.982Z,100229.38
2022-09-01T11:17:17.743Z,100229.84
2022-09-01T11:20:13.050Z,100224.53
2022-09-01T11:22:46.712Z,100231.00
2022-09-01T11:25:45.349Z,100218.88
2022-09-01T11:28:17.852Z,100219.97
2022-09-01T11:30:54.108Z,100223.25
2022-09-01T11:33:46.641Z,100215.88
2022-09-01T11:36:23.696Z,100226.59
2022-09-01T11:39:07.930Z,100219.94
2022-09-01T11:41:40.034Z,100227.31
2022-09-01T11:44:28.090Z,100223.59
2022-09-01T11:47:02.131Z,100214.47
2022-09-01T11:49:54.944Z,100221.22
2022-09-01T11:52:33.858Z,100216.69
2022-09-01T11:55:01.614Z,100209.06
2022-09-01T11:57:37.725Z,100207.13
2022-09-01T12:00:09.134Z,100201.97
2022-09-01T12:02:49.953Z,100200.38
2022-09-01T12:05:41.154Z,100210.75
2022-09-01T12:08:18.629Z,100208.81
2022-09-01T12:10:51.574Z,100213.22
2022-09-01T12:13:22.347Z,100208.00
2022-09-01T12:16:17.328Z,100217.53
2022-09-01T12:18:48.925Z,100216.72
2022-09-01T12:21:44.039Z,100213.72
2022-09-01T12:24:13.753Z,100221.91
2022-09-01T12:26:41.743Z,100214.50
2022-09-01T12:29:10.063Z,100219.16
2022-09-01T12:31:37.766Z,100216.59
2022-09-01T12:34:04.926Z,100223.22
2022-09-01T12:36:35.311Z,100223.19
2022-09-01T12:39:24.049Z,100225.66
2022-09-01T12:42:09.377Z,100223.75
2022-09-01T12:44:39.616Z,100218.50
2022-09-01T12:47:48.109Z,100227.47
2022-09-01T12:50:16.573Z,100224.47
2022-09-01T12:52:48.030Z,100227.22
2022-09-01T12:58:10.033Z,100223.38
2022-09-01T13:01:05.773Z,100233.13
2022-09-01T13:03:36.129Z,100240.22
2022-09-01T13:06:04.759Z,100237.50
2022-09-01T13:08:34.857Z,100230.16
2022-09-01T13:11:09.142Z,100226.91
2022-09-01T13:13:38.031Z,100226.91
2022-09-01T13:16:13.232Z,100226.91
2022-09-01T13:21:31.366Z,100230.69
2022-09-01T13:23:58.878Z,100229.66
2022-09-01T13:26:26.473Z,100234.03
2022-09-01T13:28:54.155Z,100241.13
2022-09-01T13:31:29.371Z,100236.50
2022-09-01T13:34:20.658Z,100236.81
2022-09-01T13:36:48.256Z,100246.31
2022-09-01T13:39:16.300Z,100231.59
2022-09-01T13:41:43.526Z,100238.44
2022-09-01T13:44:11.211Z,100238.19
2022-09-01T13:46:59.074Z,100244.16
2022-09-01T13:52:13.351Z,100244.03
2022-09-01T13:54:40.486Z,100239.41
2022-09-01T13:57:07.529Z,100236.34
2022-09-01T13:59:34.913Z,100236.94
2022-09-01T14:02:02.076Z,100238.38
2022-09-01T14:04:29.327Z,100229.03
2022-09-01T14:06:56.530Z,100232.34
2022-09-01T14:09:23.636Z,100228.78
2022-09-01T14:11:54.408Z,100221.97
2022-09-01T14:14:22.284Z,100225.84
2022-09-01T14:16:49.896Z,100230.75
2022-09-01T14:19:17.393Z,100223.09
2022-09-01T14:21:44.622Z,100226.09
2022-09-01T14:24:13.566Z,100224.44
2022-09-01T14:26:43.308Z,100222.28
2022-09-01T14:29:10.545Z,100220.13
2022-09-01T14:31:37.977Z,100224.22
2022-09-01T14:34:05.353Z,100229.66
2022-09-01T14:36:32.787Z,100222.03
2022-09-01T14:38:59.958Z,100218.78
2022-09-01T14:41:27.316Z,100222.59
2022-09-01T14:44:03.319Z,100222.34
2022-09-01T14:46:34.569Z,100224.53
2022-09-01T14:49:03.571Z,100215.28
2022-09-01T14:54:18.959Z,100216.97
2022-09-01T14:57:28.478Z,100216.72
2022-09-01T14:59:33.569Z,100225.97
2022-09-01T15:02:00.797Z,100224.06
2022-09-01T15:04:28.144Z,100228.44
2022-09-01T15:06:55.845Z,100219.13
2022-09-01T15:09:24.221Z,100227.06
2022-09-01T15:11:51.826Z,100221.84
2022-09-01T15:14:19.084Z,100223.16
2022-09-01T15:16:47.260Z,100226.97
2022-09-01T15:19:14.664Z,100227.84
2022-09-01T15:21:43.959Z,100223.16
2022-09-01T15:24:13.910Z,100227.25
2022-09-01T15:26:41.507Z,100224.78
2022-09-01T15:29:12.065Z,100220.41
2022-09-01T15:31:40.030Z,100222.59
2022-09-01T15:34:07.713Z,100220.69
2022-09-01T15:36:36.609Z,100225.06
2022-09-01T15:39:04.013Z,100222.38
2022-09-01T15:41:33.668Z,100213.88
2022-09-01T15:44:07.072Z,100224.22
2022-09-01T15:46:35.855Z,100219.63
2022-09-01T15:49:05.922Z,100219.34
2022-09-01T15:51:35.014Z,100222.13
2022-09-01T15:54:08.865Z,100216.38
2022-09-01T15:56:37.021Z,100220.47
2022-09-01T15:59:06.470Z,100219.88
2022-09-01T16:01:43.113Z,100228.03
2022-09-01T16:04:17.316Z,100220.13
2022-09-01T16:06:44.628Z,100217.13
2022-09-01T16:09:12.138Z,100214.38
2022-09-01T16:11:42.237Z,100223.88
2022-09-01T16:14:09.234Z,100216.53
2022-09-01T16:16:52.069Z,100221.97
2022-09-01T16:19:32.699Z,100222.50
2022-09-01T16:22:12.155Z,100220.59
2022-09-01T16:24:46.167Z,100222.97
2022-09-01T16:27:19.129Z,100228.50
2022-09-01T16:29:55.873Z,100222.72
2022-09-01T16:32:23.703Z,100226.81
2022-09-01T16:34:52.377Z,100232.03
2022-09-01T16:37:40.033Z,100230.69
2022-09-01T16:40:44.725Z,100233.41
2022-09-01T16:43:24.801Z,100229.75
2022-09-01T16:46:08.081Z,100239.03
2022-09-01T16:48:55.145Z,100236.84
2022-09-01T16:51:37.167Z,100233.59
2022-09-01T16:54:21.023Z,100245.84
2022-09-01T16:56:50.924Z,100243.38
2022-09-01T17:02:00.561Z,100237.69
2022-09-01T17:04:47.627Z,100242.53
2022-09-01T17:07:26.354Z,100239.81
2022-09-01T17:10:33.734Z,100241.75
2022-09-01T17:13:28.441Z,100241.72
2022-09-01T17:16:08.096Z,100249.59
2022-09-01T17:18:44.551Z,100250.19
2022-09-01T17:21:21.052Z,100247.72
2022-09-01T17:24:12.556Z,100254.19
2022-09-01T17:26:41.169Z,100246.28
2022-09-01T17:29:23.341Z,100248.13
2022-09-01T17:32:16.670Z,100254.94
2022-09-01T17:34:52.720Z,100254.91
2022-09-01T17:37:57.209Z,100254.34
2022-09-01T17:40:46.900Z,100253.31
2022-09-01T17:43:15.619Z,100250.78
2022-09-01T17:45:55.109Z,100256.47
2022-09-01T17:48:35.137Z,100267.59
2022-09-01T17:51:20.425Z,100271.34
2022-09-01T17:53:53.558Z,100278.44
2022-09-01T17:56:59.821Z,100276.44
2022-09-01T17:59:49.351Z,100279.28
2022-09-01T18:02:40.750Z,100290.63
2022-09-01T18:05:16.272Z,100297.19
2022-09-01T18:07:54.560Z,100295.84
2022-09-01T18:10:32.767Z,100297.78
2022-09-01T18:13:03.885Z,100299.31
2022-09-01T18:15:52.436Z,100296.00
2022-09-01T18:18:49.118Z,100308.03
2022-09-01T18:21:25.549Z,100311.25
2022-09-01T18:24:01.858Z,100309.53
2022-09-01T18:26:34.560Z,100309.88
2022-09-01T18:29:02.594Z,100310.97
2022-09-01T18:31:29.555Z,100310.63
2022-09-01T18:34:19.658Z,100320.13
2022-09-01T18:37:24.476Z,100315.44
2022-09-01T18:40:16.249Z,100324.88
2022-09-01T18:42:58.485Z,100323.25
2022-09-01T18:45:57.778Z,100328.44
2022-09-01T18:48:33.845Z,100321.34
2022-09-01T18:51:12.174Z,100330.69
2022-09-01T18:53:48.113Z,100324.53
2022-09-01T18:56:55.136Z,100324.53
2022-09-01T18:59:44.240Z,100329.22
2022-09-01T19:02:26.914Z,100338.13
2022-09-01T19:04:59.842Z,100337.56
2022-09-01T19:07:58.970Z,100338.94
2022-09-01T19:10:35.058Z,100345.38
2022-09-01T19:13:13.197Z,100345.91
2022-09-01T19:16:18.499Z,100345.19
2022-09-01T19:19:03.498Z,100340.91
2022-09-01T19:21:32.511Z,100338.75
2022-09-01T19:24:02.745Z,100340.38
2022-09-01T19:26:39.274Z,100345.53
2022-09-01T19:29:17.573Z,100345.97
2022-09-01T19:31:48.657Z,100348.78
2022-09-01T19:34:25.945Z,100349.53
2022-09-01T19:37:01.853Z,100356.41
2022-09-01T19:39:35.278Z,100362.63
2022-09-01T19:42:11.266Z,100359.25
2022-09-01T19:44:54.944Z,100355.78
2022-09-01T19:47:37.151Z,100357.81
2022-09-01T19:50:21.233Z,100356.09
2022-09-01T19:52:56.907Z,100357.22
2022-09-01T19:55:33.089Z,100356.34
2022-09-01T19:58:06.844Z,100356.91
2022-09-01T20:00:52.657Z,100361.09
2022-09-01T20:03:36.740Z,100357.94
2022-09-01T20:06:12.196Z,100361.13
2022-09-01T20:08:54.915Z,100360.75
2022-09-01T20:11:53.222Z,100367.53
2022-09-01T20:14:50.994Z,100358.63
2022-09-01T20:17:46.543Z,100367.19
2022-09-01T20:20:46.543Z,100365.03
2022-09-01T20:23:41.475Z,100363.53
2022-09-01T20:26:15.993Z,100365.97
2022-09-01T20:28:58.047Z,100362.75
2022-09-01T20:31:33.579Z,100363.59
2022-09-01T20:34:20.360Z,100369.09
2022-09-01T20:37:00.756Z,100363.38
2022-09-01T20:39:46.076Z,100369.03
2022-09-01T20:42:19.962Z,100369.78
2022-09-01T20:44:53.486Z,100368.13
2022-09-01T20:47:24.061Z,100377.38
2022-09-01T20:49:51.195Z,100380.09
2022-09-01T20:52:53.552Z,100374.03
2022-09-01T20:55:32.095Z,100377.75
2022-09-01T20:58:24.080Z,100379.97
2022-09-01T21:01:04.172Z,100384.25
2022-09-01T21:03:50.880Z,100386.53
2022-09-01T21:06:32.599Z,100384.19
2022-09-01T21:09:11.348Z,100380.66
2022-09-01T21:11:53.754Z,100386.91
2022-09-01T21:14:38.120Z,100380.66
2022-09-01T21:17:33.020Z,100378.06
2022-09-01T21:20:11.227Z,100387.03
2022-09-01T21:22:38.370Z,100380.16
2022-09-01T21:25:06.089Z,100376.69
2022-09-01T21:27:42.808Z,100384.94
2022-09-01T21:30:14.217Z,100381.09
2022-09-01T21:32:42.082Z,100376.47
2022-09-01T21:35:12.574Z,100380.47
2022-09-01T21:37:39.934Z,100376.25
2022-09-01T21:40:07.972Z,100378.75
2022-09-01T21:42:41.358Z,100370.34
2022-09-01T21:45:12.270Z,100370.88
2022-09-01T21:47:40.353Z,100364.59
2022-09-01T21:50:07.969Z,100363.00
2022-09-01T21:52:35.087Z,100362.78
2022-09-01T21:55:02.113Z,100357.59
2022-09-01T21:57:29.442Z,100367.63
2022-09-01T21:59:56.425Z,100361.13
2022-09-01T22:02:28.409Z,100361.25
2022-09-01T22:04:56.379Z,100363.06
2022-09-01T22:07:23.388Z,100367.00
2022-09-01T22:09:50.483Z,100360.81
2022-09-01T22:12:17.671Z,100358.34
2022-09-01T22:14:44.762Z,100363.13
2022-09-01T22:17:11.748Z,100359.66
2022-09-01T22:19:38.875Z,100363.25
2022-09-01T22:22:05.843Z,100355.38
2022-09-01T22:24:33.103Z,100352.66
2022-09-01T22:27:00.219Z,100356.88
2022-09-01T22:29:27.236Z,100356.00
2022-09-01T22:31:54.259Z,100359.03
2022-09-01T22:34:21.274Z,100364.16
2022-09-01T22:36:49.473Z,100362.41
2022-09-01T22:39:18.384Z,100353.78
2022-09-01T22:41:45.553Z,100353.78
2022-09-01T22:44:12.790Z,100352.94
2022-09-01T22:46:40.643Z,100340.94
2022-09-01T22:49:08.037Z,100340.50
2022-09-01T22:51:40.109Z,100339.28
2022-09-01T22:54:10.140Z,100344.66
2022-09-01T22:56:39.609Z,100340.25
2022-09-01T22:59:12.226Z,100342.63
2022-09-01T23:01:42.765Z,100339.59
2022-09-01T23:04:13.106Z,100338.19
2022-09-01T23:06:45.051Z,100336.22
2022-09-01T23:09:13.616Z,100337.22
2022-09-01T23:11:41.338Z,100332.50
2022-09-01T23:14:09.068Z,100330.97
2022-09-01T23:16:36.979Z,100334.00
2022-09-01T23:19:04.814Z,100346.69
2022-09-01T23:21:35.287Z,100343.16
2022-09-01T23:24:02.999Z,100346.19
2022-09-01T23:26:32.130Z,100342.06
2022-09-01T23:29:00.027Z,100343.66
2022-09-01T23:31:30.554Z,100348.41
2022-09-01T23:33:58.255Z,100339.28
2022-09-01T23:36:27.788Z,100330.78
2022-09-01T23:38:56.263Z,100325.78
2022-09-01T23:41:33.063Z,100336.56
2022-09-01T23:44:03.644Z,100341.50
2022-09-01T23:46:34.022Z,100320.50
2022-09-01T23:49:02.433Z,100305.94
2022-09-01T23:51:30.146Z,100313.59
2022-09-01T23:53:57.413Z,100319.47
2022-09-01T23:56:26.311Z,100314.75
2022-09-01T23:58:53.843Z,100316.16
